MMLOMMPN

Guest
Details From MMLO - GUANAJUATO INTL
To MMPN - LICENCIADO Y GEN IGNACIO LOPEZ RAYON
Flight Number -
Tags generated
Created
Modified
Stats Distance 101 nm / 187 km
Max Altitude 0 ft / 0 m
Waypoints 3
Social Downloads 0
Likes 0
Share VATSIM

Download

Looking for another format? Having issues loading an existing format? Contact us
Advertisement - Login to hide

Notes

Basic altitude profile: - Ascent Rate: 2500ft/min - Ascent Speed: 250kts - Cruise Altitude: 35000ft - Cruise Speed: 420kts - Descent Rate: 1500ft/min - Descent Speed: 250kts Options: - Use NATs: no - Use PACOTS: no - Use low airways: yes - Use high airways: no

Route

MMLO UPN MMPN

ID Type Via Altitude Latitude Longitude Leg Dist Tot Dist Heading (true) Name
O MMLO APT - 0 ft / 0 m 20.99346˚ -101.48085˚ - 0 nm - GUANAJUATO INTL
UPN VOR - 0 ft / 0 m 19.39576˚ -102.04109˚ 101 nm 101 nm 198° / 198° URUAPAN VOR-DME
O MMPN APT - 0 ft / 0 m 19.39669˚ -102.03906˚ 0 nm 101 nm 64° / 64° LICENCIADO Y GEN IGNACIO LOPEZ RAYON

Altitude Profile

Advertisement - Login to hide

MMLO

Details ICAO MMLO (BJX)
Name GUANAJUATO INTL
Region Mexico
Timezone America/Mexico_City (UTC-6.0)
Stats Elevation 5,956 ft / 1,815 m (AMSL)
Location 20.993462° -101.480847°
Runways 1
Magnetic Variation 5.585° E

METAR

MMLO 151445Z 00000KT 7SM FEW030 BKN120 OVC250 12/05 A3026 RMK SLP153 52016 973 8/537 HZY

Decode

TAF

TAF AMD MMLO 151302Z 1513/1606 20008KT 6SM HZ BKN030 BKN250 FM151800 20010G20KT P6SM BKN030 BKN100 BKN200 TEMPO 1522/1602 5SM RA BKN020 FM160400 24010KT 6SM HZ SCT015 BKN100 BKN200

Decode

Departure Runways

ID Width Length Bearing (true) Bearing (mag) Surface Threshold Offset Overrun Length
13 148 ft / 45 m 11,451 ft / 3,490 m 134.09° 128.50° Asphalt 0 ft / 0 m 204 ft / 62 m
31 148 ft / 45 m 11,451 ft / 3,490 m 314.10° 308.51° Asphalt 0 ft / 0 m 204 ft / 62 m

MMPN

Details ICAO MMPN (UPN)
Name LICENCIADO Y GEN IGNACIO LOPEZ RAYON
Region Mexico
Timezone America/Mexico_City (UTC-6.0)
Stats Elevation 5,258 ft / 1,603 m (AMSL)
Location 19.396692° -102.039056°
Runways 1
Magnetic Variation 5.794° E

METAR

MMPN 151552Z 00000KT 4SM SCT030TCU SCT120 17/12 A3018 RMK 8/270 HZY CI

Decode

TAF

Not found

Destination Runways

ID Width Length Bearing (true) Bearing (mag) Surface Threshold Offset Overrun Length
02 148 ft / 45 m 7,920 ft / 2,414 m 31.16° 25.37° Asphalt 0 ft / 0 m 200 ft / 61 m
20 148 ft / 45 m 7,920 ft / 2,414 m 211.16° 205.37° Asphalt 0 ft / 0 m 200 ft / 61 m

Popular Alternatives